CheckWX is a tool to help pilots better visualize weather data.  It is not intended as a substitute for an official pre-flight weather briefing.

13:49:21 UTC

WSSS METAR
Singapore Changi International Airport
Singapore, Singapore
Current

49 mins ago

WSSS 201300Z 17006KT 130V250 9999 FEW018 BKN280 29/24 Q1011 NOSIG
Observed
May-20 @ 13:00 UTC
Wind
  • 170° at 6 KTS
Visibility
10,000+ meters
Flight Rules
VFR
Cloud Levels
  • Few at 1,800' AGL
  • Broken at 28,000' AGL
Temperature
29°C / 84°F
Dewpoint
24°C / 75°F
Heat Index
33°C / 92°F
Humidity
74%
Altimeter
29.85" Hg
Pressure
1010.92 hPa
Previous

1 hour ago

WSSS 201230Z 14006KT 9999 FEW018 BKN280 29/23 Q1010 NOSIG
Observed
May-20 @ 12:30 UTC
Wind
  • 140° at 6 KTS
Visibility
10,000+ meters
Flight Rules
VFR
Cloud Levels
  • Few at 1,800' AGL
  • Broken at 28,000' AGL
Temperature
29°C / 84°F
Dewpoint
23°C / 73°F
Heat Index
32°C / 90°F
Humidity
70%
Altimeter
29.82" Hg
Pressure
1009.92 hPa
Previous

2 hours ago

WSSS 201200Z 14005KT 110V190 9999 FEW018 BKN280 29/24 Q1009 NOSIG
Observed
May-20 @ 12:00 UTC
Wind
  • 140° at 5 KTS
Visibility
10,000+ meters
Flight Rules
VFR
Cloud Levels
  • Few at 1,800' AGL
  • Broken at 28,000' AGL
Temperature
29°C / 84°F
Dewpoint
24°C / 75°F
Heat Index
33°C / 92°F
Humidity
74%
Altimeter
29.79" Hg
Pressure
1008.92 hPa